sensor_id;sensor_type;location;lat;lon;timestamp;P1;durP1;ratioP1;P2;durP2;ratioP2
9759;SDS011;4919;48.792;9.202;2022-11-24T00:01:05;42.67;;;22.47;;
9759;SDS011;4919;48.792;9.202;2022-11-24T00:03:37;43.67;;;23.33;;
9759;SDS011;4919;48.792;9.202;2022-11-24T00:06:05;43.03;;;23.07;;
9759;SDS011;4919;48.792;9.202;2022-11-24T00:08:34;45.60;;;23.43;;
9759;SDS011;4919;48.792;9.202;2022-11-24T00:11:06;42.17;;;22.70;;
9759;SDS011;4919;48.792;9.202;2022-11-24T00:13:40;46.93;;;24.17;;
9759;SDS011;4919;48.792;9.202;2022-11-24T00:16:14;45.93;;;24.87;;
9759;SDS011;4919;48.792;9.202;2022-11-24T00:18:45;47.07;;;25.23;;
9759;SDS011;4919;48.792;9.202;2022-11-24T00:21:14;47.50;;;25.13;;
9759;SDS011;4919;48.792;9.202;2022-11-24T00:23:42;55.57;;;27.70;;
9759;SDS011;4919;48.792;9.202;2022-11-24T00:26:11;54.43;;;28.37;;
9759;SDS011;4919;48.792;9.202;2022-11-24T00:28:39;62.97;;;29.17;;
9759;SDS011;4919;48.792;9.202;2022-11-24T00:31:23;61.07;;;29.73;;
9759;SDS011;4919;48.792;9.202;2022-11-24T00:34:05;58.67;;;28.90;;
9759;SDS011;4919;48.792;9.202;2022-11-24T00:36:35;60.47;;;28.47;;
9759;SDS011;4919;48.792;9.202;2022-11-24T00:39:04;71.30;;;30.27;;
9759;SDS011;4919;48.792;9.202;2022-11-24T00:41:41;65.07;;;29.33;;
9759;SDS011;4919;48.792;9.202;2022-11-24T00:44:08;60.90;;;29.47;;
9759;SDS011;4919;48.792;9.202;2022-11-24T00:46:35;63.97;;;29.90;;
9759;SDS011;4919;48.792;9.202;2022-11-24T00:49:03;101.07;;;29.83;;
9759;SDS011;4919;48.792;9.202;2022-11-24T00:51:30;73.20;;;29.23;;
9759;SDS011;4919;48.792;9.202;2022-11-24T00:53:58;70.60;;;30.50;;
9759;SDS011;4919;48.792;9.202;2022-11-24T00:56:26;96.87;;;30.33;;
9759;SDS011;4919;48.792;9.202;2022-11-24T00:58:54;69.07;;;29.73;;
9759;SDS011;4919;48.792;9.202;2022-11-24T01:01:22;83.03;;;31.13;;
9759;SDS011;4919;48.792;9.202;2022-11-24T01:03:51;72.77;;;30.97;;
9759;SDS011;4919;48.792;9.202;2022-11-24T01:06:21;69.70;;;30.87;;
9759;SDS011;4919;48.792;9.202;2022-11-24T01:08:49;73.13;;;29.53;;
9759;SDS011;4919;48.792;9.202;2022-11-24T01:11:18;76.60;;;31.57;;
9759;SDS011;4919;48.792;9.202;2022-11-24T01:13:50;66.47;;;30.20;;
9759;SDS011;4919;48.792;9.202;2022-11-24T01:16:19;75.73;;;31.17;;
9759;SDS011;4919;48.792;9.202;2022-11-24T01:18:48;79.83;;;31.43;;
9759;SDS011;4919;48.792;9.202;2022-11-24T01:21:16;67.83;;;30.33;;
9759;SDS011;4919;48.792;9.202;2022-11-24T01:23:43;65.77;;;30.30;;
9759;SDS011;4919;48.792;9.202;2022-11-24T01:26:11;74.97;;;28.87;;
9759;SDS011;4919;48.792;9.202;2022-11-24T01:28:40;67.43;;;30.00;;
9759;SDS011;4919;48.792;9.202;2022-11-24T01:31:12;95.63;;;30.90;;
9759;SDS011;4919;48.792;9.202;2022-11-24T01:33:39;85.50;;;29.97;;
9759;SDS011;4919;48.792;9.202;2022-11-24T01:36:06;61.67;;;30.53;;
9759;SDS011;4919;48.792;9.202;2022-11-24T01:38:33;76.20;;;28.27;;
9759;SDS011;4919;48.792;9.202;2022-11-24T01:41:10;68.73;;;29.57;;
9759;SDS011;4919;48.792;9.202;2022-11-24T01:43:39;79.77;;;30.13;;
9759;SDS011;4919;48.792;9.202;2022-11-24T01:48:45;102.10;;;32.20;;
9759;SDS011;4919;48.792;9.202;2022-11-24T01:51:41;70.13;;;29.17;;
9759;SDS011;4919;48.792;9.202;2022-11-24T01:54:32;96.13;;;30.70;;
9759;SDS011;4919;48.792;9.202;2022-11-24T01:57:12;68.07;;;29.33;;
9759;SDS011;4919;48.792;9.202;2022-11-24T01:59:43;73.47;;;29.93;;
9759;SDS011;4919;48.792;9.202;2022-11-24T02:02:18;79.00;;;30.40;;
9759;SDS011;4919;48.792;9.202;2022-11-24T02:04:46;92.37;;;29.83;;
9759;SDS011;4919;48.792;9.202;2022-11-24T02:07:14;89.10;;;30.60;;
9759;SDS011;4919;48.792;9.202;2022-11-24T02:09:51;59.90;;;28.93;;
9759;SDS011;4919;48.792;9.202;2022-11-24T02:12:22;87.70;;;30.33;;
9759;SDS011;4919;48.792;9.202;2022-11-24T02:14:52;72.47;;;30.07;;
9759;SDS011;4919;48.792;9.202;2022-11-24T02:17:20;96.87;;;29.93;;
9759;SDS011;4919;48.792;9.202;2022-11-24T02:27:48;87.40;;;29.67;;
9759;SDS011;4919;48.792;9.202;2022-11-24T02:30:19;93.70;;;32.30;;
9759;SDS011;4919;48.792;9.202;2022-11-24T02:32:46;95.17;;;30.37;;
9759;SDS011;4919;48.792;9.202;2022-11-24T02:35:13;146.40;;;35.47;;
9759;SDS011;4919;48.792;9.202;2022-11-24T02:37:40;86.47;;;30.67;;
9759;SDS011;4919;48.792;9.202;2022-11-24T02:40:08;92.80;;;30.53;;
9759;SDS011;4919;48.792;9.202;2022-11-24T02:42:36;80.10;;;31.70;;
9759;SDS011;4919;48.792;9.202;2022-11-24T02:45:08;123.10;;;32.03;;
9759;SDS011;4919;48.792;9.202;2022-11-24T02:47:36;103.80;;;32.13;;
9759;SDS011;4919;48.792;9.202;2022-11-24T02:50:03;96.93;;;30.73;;
9759;SDS011;4919;48.792;9.202;2022-11-24T02:52:30;102.33;;;30.40;;
9759;SDS011;4919;48.792;9.202;2022-11-24T02:54:57;88.97;;;32.33;;
9759;SDS011;4919;48.792;9.202;2022-11-24T02:57:24;97.70;;;30.03;;
9759;SDS011;4919;48.792;9.202;2022-11-24T02:59:51;69.47;;;30.43;;
9759;SDS011;4919;48.792;9.202;2022-11-24T03:02:17;97.73;;;31.13;;
9759;SDS011;4919;48.792;9.202;2022-11-24T03:04:44;87.20;;;30.23;;
9759;SDS011;4919;48.792;9.202;2022-11-24T03:07:11;90.73;;;30.80;;
9759;SDS011;4919;48.792;9.202;2022-11-24T03:09:38;85.40;;;29.47;;
9759;SDS011;4919;48.792;9.202;2022-11-24T03:12:05;93.83;;;30.63;;
9759;SDS011;4919;48.792;9.202;2022-11-24T03:14:32;82.53;;;29.37;;
9759;SDS011;4919;48.792;9.202;2022-11-24T03:16:59;84.27;;;29.07;;
9759;SDS011;4919;48.792;9.202;2022-11-24T03:19:26;96.97;;;30.50;;
9759;SDS011;4919;48.792;9.202;2022-11-24T03:21:53;90.37;;;30.23;;
9759;SDS011;4919;48.792;9.202;2022-11-24T03:24:20;69.27;;;28.20;;
9759;SDS011;4919;48.792;9.202;2022-11-24T03:26:47;87.07;;;28.63;;
9759;SDS011;4919;48.792;9.202;2022-11-24T03:29:14;74.37;;;29.17;;
9759;SDS011;4919;48.792;9.202;2022-11-24T03:31:41;82.17;;;29.00;;
9759;SDS011;4919;48.792;9.202;2022-11-24T03:34:08;65.73;;;28.67;;
9759;SDS011;4919;48.792;9.202;2022-11-24T03:36:35;64.00;;;28.30;;
9759;SDS011;4919;48.792;9.202;2022-11-24T03:39:02;87.13;;;28.17;;
9759;SDS011;4919;48.792;9.202;2022-11-24T03:41:29;78.07;;;28.43;;
9759;SDS011;4919;48.792;9.202;2022-11-24T03:43:56;80.23;;;27.40;;
9759;SDS011;4919;48.792;9.202;2022-11-24T03:46:22;87.57;;;27.33;;
9759;SDS011;4919;48.792;9.202;2022-11-24T03:48:49;57.43;;;26.77;;
9759;SDS011;4919;48.792;9.202;2022-11-24T03:51:16;66.97;;;27.50;;
9759;SDS011;4919;48.792;9.202;2022-11-24T03:53:43;70.53;;;26.67;;
9759;SDS011;4919;48.792;9.202;2022-11-24T03:56:10;70.03;;;28.37;;
9759;SDS011;4919;48.792;9.202;2022-11-24T03:58:36;82.53;;;26.97;;
9759;SDS011;4919;48.792;9.202;2022-11-24T04:01:03;79.80;;;27.80;;
9759;SDS011;4919;48.792;9.202;2022-11-24T04:03:30;67.50;;;27.03;;
9759;SDS011;4919;48.792;9.202;2022-11-24T04:05:57;68.47;;;26.53;;
9759;SDS011;4919;48.792;9.202;2022-11-24T04:08:24;67.67;;;26.73;;
9759;SDS011;4919;48.792;9.202;2022-11-24T04:10:51;97.60;;;26.93;;
9759;SDS011;4919;48.792;9.202;2022-11-24T04:13:20;79.03;;;28.13;;
9759;SDS011;4919;48.792;9.202;2022-11-24T04:15:49;63.67;;;27.13;;
9759;SDS011;4919;48.792;9.202;2022-11-24T04:18:17;68.77;;;27.67;;
9759;SDS011;4919;48.792;9.202;2022-11-24T04:20:44;62.20;;;26.77;;
9759;SDS011;4919;48.792;9.202;2022-11-24T04:23:11;87.23;;;27.73;;
9759;SDS011;4919;48.792;9.202;2022-11-24T04:25:38;60.17;;;26.83;;
9759;SDS011;4919;48.792;9.202;2022-11-24T04:28:07;75.80;;;26.77;;
9759;SDS011;4919;48.792;9.202;2022-11-24T04:30:34;65.73;;;26.30;;
9759;SDS011;4919;48.792;9.202;2022-11-24T04:33:03;81.67;;;28.03;;
9759;SDS011;4919;48.792;9.202;2022-11-24T04:35:30;66.70;;;26.90;;
9759;SDS011;4919;48.792;9.202;2022-11-24T04:38:00;75.23;;;27.03;;
9759;SDS011;4919;48.792;9.202;2022-11-24T04:40:28;69.07;;;26.00;;
9759;SDS011;4919;48.792;9.202;2022-11-24T04:42:55;101.53;;;27.53;;
9759;SDS011;4919;48.792;9.202;2022-11-24T04:45:22;68.93;;;26.20;;
9759;SDS011;4919;48.792;9.202;2022-11-24T04:47:49;76.77;;;27.87;;
9759;SDS011;4919;48.792;9.202;2022-11-24T04:50:16;66.23;;;25.73;;
9759;SDS011;4919;48.792;9.202;2022-11-24T04:52:43;72.07;;;26.30;;
9759;SDS011;4919;48.792;9.202;2022-11-24T04:55:10;60.67;;;26.93;;
9759;SDS011;4919;48.792;9.202;2022-11-24T04:57:37;64.40;;;26.13;;
9759;SDS011;4919;48.792;9.202;2022-11-24T05:00:04;69.33;;;23.17;;
9759;SDS011;4919;48.792;9.202;2022-11-24T05:02:31;58.67;;;23.07;;
9759;SDS011;4919;48.792;9.202;2022-11-24T05:04:58;55.40;;;22.87;;
9759;SDS011;4919;48.792;9.202;2022-11-24T05:07:25;80.93;;;24.47;;
9759;SDS011;4919;48.792;9.202;2022-11-24T05:09:52;52.67;;;24.43;;
9759;SDS011;4919;48.792;9.202;2022-11-24T05:12:37;52.93;;;25.07;;
9759;SDS011;4919;48.792;9.202;2022-11-24T05:15:05;78.87;;;23.37;;
9759;SDS011;4919;48.792;9.202;2022-11-24T05:17:34;55.43;;;24.17;;
9759;SDS011;4919;48.792;9.202;2022-11-24T05:20:03;57.93;;;22.37;;
9759;SDS011;4919;48.792;9.202;2022-11-24T05:22:31;73.60;;;23.67;;
9759;SDS011;4919;48.792;9.202;2022-11-24T05:24:58;53.07;;;23.63;;
9759;SDS011;4919;48.792;9.202;2022-11-24T05:27:24;80.67;;;23.03;;
9759;SDS011;4919;48.792;9.202;2022-11-24T05:29:51;61.37;;;22.10;;
9759;SDS011;4919;48.792;9.202;2022-11-24T05:32:18;78.77;;;23.70;;
9759;SDS011;4919;48.792;9.202;2022-11-24T05:34:45;80.50;;;21.93;;
9759;SDS011;4919;48.792;9.202;2022-11-24T05:37:12;92.13;;;22.97;;
9759;SDS011;4919;48.792;9.202;2022-11-24T05:39:39;101.50;;;21.63;;
9759;SDS011;4919;48.792;9.202;2022-11-24T05:42:06;64.27;;;22.20;;
9759;SDS011;4919;48.792;9.202;2022-11-24T05:44:52;77.13;;;22.00;;
9759;SDS011;4919;48.792;9.202;2022-11-24T05:47:19;74.27;;;20.97;;
9759;SDS011;4919;48.792;9.202;2022-11-24T05:49:47;75.57;;;21.87;;
9759;SDS011;4919;48.792;9.202;2022-11-24T05:52:14;72.03;;;20.73;;
9759;SDS011;4919;48.792;9.202;2022-11-24T05:54:41;50.40;;;20.73;;
9759;SDS011;4919;48.792;9.202;2022-11-24T05:57:08;94.67;;;22.37;;
9759;SDS011;4919;48.792;9.202;2022-11-24T05:59:35;43.03;;;20.40;;
9759;SDS011;4919;48.792;9.202;2022-11-24T06:02:02;69.93;;;21.40;;
9759;SDS011;4919;48.792;9.202;2022-11-24T06:04:29;56.57;;;20.43;;
9759;SDS011;4919;48.792;9.202;2022-11-24T06:06:57;52.77;;;21.13;;
9759;SDS011;4919;48.792;9.202;2022-11-24T06:09:24;70.37;;;20.77;;
9759;SDS011;4919;48.792;9.202;2022-11-24T06:11:51;84.60;;;21.57;;
9759;SDS011;4919;48.792;9.202;2022-11-24T06:14:18;52.37;;;21.13;;
9759;SDS011;4919;48.792;9.202;2022-11-24T06:16:45;60.70;;;19.77;;
9759;SDS011;4919;48.792;9.202;2022-11-24T06:19:12;51.27;;;18.83;;
9759;SDS011;4919;48.792;9.202;2022-11-24T06:21:39;46.03;;;18.50;;
9759;SDS011;4919;48.792;9.202;2022-11-24T06:24:06;58.03;;;19.43;;
9759;SDS011;4919;48.792;9.202;2022-11-24T06:26:33;47.87;;;18.97;;
9759;SDS011;4919;48.792;9.202;2022-11-24T06:29:00;42.00;;;19.33;;
9759;SDS011;4919;48.792;9.202;2022-11-24T06:31:27;45.00;;;19.00;;
9759;SDS011;4919;48.792;9.202;2022-11-24T06:33:54;57.07;;;19.73;;
9759;SDS011;4919;48.792;9.202;2022-11-24T06:36:21;66.00;;;20.83;;
9759;SDS011;4919;48.792;9.202;2022-11-24T06:38:47;67.00;;;19.73;;
9759;SDS011;4919;48.792;9.202;2022-11-24T06:41:14;48.27;;;18.90;;
9759;SDS011;4919;48.792;9.202;2022-11-24T06:43:43;46.03;;;19.60;;
9759;SDS011;4919;48.792;9.202;2022-11-24T06:46:11;41.53;;;19.67;;
9759;SDS011;4919;48.792;9.202;2022-11-24T06:48:38;46.63;;;17.87;;
9759;SDS011;4919;48.792;9.202;2022-11-24T06:51:06;47.10;;;19.17;;
9759;SDS011;4919;48.792;9.202;2022-11-24T06:53:35;62.67;;;20.40;;
9759;SDS011;4919;48.792;9.202;2022-11-24T06:56:08;67.77;;;20.00;;
9759;SDS011;4919;48.792;9.202;2022-11-24T06:58:49;45.00;;;19.63;;
9759;SDS011;4919;48.792;9.202;2022-11-24T07:01:18;50.00;;;19.07;;
9759;SDS011;4919;48.792;9.202;2022-11-24T07:03:50;40.33;;;17.90;;
9759;SDS011;4919;48.792;9.202;2022-11-24T07:06:18;65.80;;;19.37;;
9759;SDS011;4919;48.792;9.202;2022-11-24T07:08:45;48.87;;;19.83;;
9759;SDS011;4919;48.792;9.202;2022-11-24T07:11:14;62.90;;;18.77;;
9759;SDS011;4919;48.792;9.202;2022-11-24T07:13:46;47.47;;;20.23;;
9759;SDS011;4919;48.792;9.202;2022-11-24T07:16:22;50.90;;;18.60;;
9759;SDS011;4919;48.792;9.202;2022-11-24T07:18:51;38.83;;;17.70;;
9759;SDS011;4919;48.792;9.202;2022-11-24T07:21:19;41.03;;;19.80;;
9759;SDS011;4919;48.792;9.202;2022-11-24T07:23:48;38.03;;;19.83;;
9759;SDS011;4919;48.792;9.202;2022-11-24T07:26:16;49.90;;;20.03;;
9759;SDS011;4919;48.792;9.202;2022-11-24T07:28:43;38.00;;;20.07;;
9759;SDS011;4919;48.792;9.202;2022-11-24T07:31:14;37.10;;;19.47;;
9759;SDS011;4919;48.792;9.202;2022-11-24T07:33:50;44.67;;;20.97;;
9759;SDS011;4919;48.792;9.202;2022-11-24T07:36:18;51.03;;;19.23;;
9759;SDS011;4919;48.792;9.202;2022-11-24T07:38:46;36.27;;;18.63;;
9759;SDS011;4919;48.792;9.202;2022-11-24T07:41:14;45.13;;;19.80;;
9759;SDS011;4919;48.792;9.202;2022-11-24T07:43:41;39.00;;;19.60;;
9759;SDS011;4919;48.792;9.202;2022-11-24T07:46:09;45.60;;;19.00;;
9759;SDS011;4919;48.792;9.202;2022-11-24T07:48:37;57.67;;;20.63;;
9759;SDS011;4919;48.792;9.202;2022-11-24T07:51:05;41.93;;;21.00;;
9759;SDS011;4919;48.792;9.202;2022-11-24T07:53:32;43.03;;;21.00;;
9759;SDS011;4919;48.792;9.202;2022-11-24T07:56:00;48.20;;;20.83;;
9759;SDS011;4919;48.792;9.202;2022-11-24T07:58:29;57.03;;;20.47;;
9759;SDS011;4919;48.792;9.202;2022-11-24T08:00:58;54.53;;;21.77;;
9759;SDS011;4919;48.792;9.202;2022-11-24T08:03:26;49.23;;;21.30;;
9759;SDS011;4919;48.792;9.202;2022-11-24T08:05:54;44.27;;;20.57;;
9759;SDS011;4919;48.792;9.202;2022-11-24T08:08:41;43.17;;;20.07;;
9759;SDS011;4919;48.792;9.202;2022-11-24T08:11:10;54.37;;;21.23;;
9759;SDS011;4919;48.792;9.202;2022-11-24T08:13:39;43.60;;;20.20;;
9759;SDS011;4919;48.792;9.202;2022-11-24T08:16:07;44.43;;;21.10;;
9759;SDS011;4919;48.792;9.202;2022-11-24T08:18:37;58.63;;;23.43;;
9759;SDS011;4919;48.792;9.202;2022-11-24T08:21:04;46.17;;;21.27;;
9759;SDS011;4919;48.792;9.202;2022-11-24T08:23:32;47.50;;;21.77;;
9759;SDS011;4919;48.792;9.202;2022-11-24T08:26:06;50.97;;;22.23;;
9759;SDS011;4919;48.792;9.202;2022-11-24T08:28:36;41.43;;;21.90;;
9759;SDS011;4919;48.792;9.202;2022-11-24T08:31:04;47.07;;;21.30;;
9759;SDS011;4919;48.792;9.202;2022-11-24T08:33:35;44.07;;;19.97;;
9759;SDS011;4919;48.792;9.202;2022-11-24T08:36:10;44.00;;;22.60;;
9759;SDS011;4919;48.792;9.202;2022-11-24T08:38:38;41.50;;;21.03;;
9759;SDS011;4919;48.792;9.202;2022-11-24T08:41:10;43.40;;;21.40;;
9759;SDS011;4919;48.792;9.202;2022-11-24T08:43:38;42.97;;;21.60;;
9759;SDS011;4919;48.792;9.202;2022-11-24T08:46:06;45.67;;;22.03;;
9759;SDS011;4919;48.792;9.202;2022-11-24T08:48:35;41.00;;;21.00;;
9759;SDS011;4919;48.792;9.202;2022-11-24T08:51:09;45.33;;;22.20;;
9759;SDS011;4919;48.792;9.202;2022-11-24T08:53:41;40.83;;;21.60;;
9759;SDS011;4919;48.792;9.202;2022-11-24T08:56:09;46.17;;;23.33;;
9759;SDS011;4919;48.792;9.202;2022-11-24T08:58:36;37.90;;;20.83;;
9759;SDS011;4919;48.792;9.202;2022-11-24T09:01:11;39.47;;;20.87;;
9759;SDS011;4919;48.792;9.202;2022-11-24T09:03:40;45.33;;;21.53;;
9759;SDS011;4919;48.792;9.202;2022-11-24T09:06:19;35.67;;;19.63;;
9759;SDS011;4919;48.792;9.202;2022-11-24T09:08:51;40.60;;;20.47;;
9759;SDS011;4919;48.792;9.202;2022-11-24T09:11:19;41.77;;;20.67;;
9759;SDS011;4919;48.792;9.202;2022-11-24T09:13:47;39.13;;;21.17;;
9759;SDS011;4919;48.792;9.202;2022-11-24T09:16:15;39.37;;;20.87;;
9759;SDS011;4919;48.792;9.202;2022-11-24T09:18:47;39.70;;;20.80;;
9759;SDS011;4919;48.792;9.202;2022-11-24T09:21:20;40.57;;;21.23;;
9759;SDS011;4919;48.792;9.202;2022-11-24T09:23:48;42.30;;;22.17;;
9759;SDS011;4919;48.792;9.202;2022-11-24T09:26:26;36.13;;;20.30;;
9759;SDS011;4919;48.792;9.202;2022-11-24T09:28:55;38.53;;;21.33;;
9759;SDS011;4919;48.792;9.202;2022-11-24T09:31:23;41.40;;;22.77;;
9759;SDS011;4919;48.792;9.202;2022-11-24T09:33:55;42.50;;;22.57;;
9759;SDS011;4919;48.792;9.202;2022-11-24T09:36:22;42.60;;;23.13;;
9759;SDS011;4919;48.792;9.202;2022-11-24T09:38:49;43.37;;;22.67;;
9759;SDS011;4919;48.792;9.202;2022-11-24T09:49:07;46.70;;;22.77;;
9759;SDS011;4919;48.792;9.202;2022-11-24T09:51:39;41.47;;;22.40;;
9759;SDS011;4919;48.792;9.202;2022-11-24T09:54:14;42.33;;;23.53;;
9759;SDS011;4919;48.792;9.202;2022-11-24T09:56:45;42.20;;;22.57;;
9759;SDS011;4919;48.792;9.202;2022-11-24T09:59:14;36.87;;;21.17;;
9759;SDS011;4919;48.792;9.202;2022-11-24T10:01:45;40.47;;;21.93;;
9759;SDS011;4919;48.792;9.202;2022-11-24T10:04:27;38.53;;;21.33;;
9759;SDS011;4919;48.792;9.202;2022-11-24T10:07:07;36.97;;;21.37;;
9759;SDS011;4919;48.792;9.202;2022-11-24T10:21:21;35.93;;;20.53;;
9759;SDS011;4919;48.792;9.202;2022-11-24T10:29:41;35.03;;;20.23;;
9759;SDS011;4919;48.792;9.202;2022-11-24T10:32:25;36.70;;;20.47;;
9759;SDS011;4919;48.792;9.202;2022-11-24T10:38:01;39.93;;;23.03;;
9759;SDS011;4919;48.792;9.202;2022-11-24T10:40:47;36.83;;;20.47;;
9759;SDS011;4919;48.792;9.202;2022-11-24T10:43:24;38.73;;;21.97;;
9759;SDS011;4919;48.792;9.202;2022-11-24T10:46:04;34.60;;;21.07;;
9759;SDS011;4919;48.792;9.202;2022-11-24T10:48:39;40.37;;;23.27;;
9759;SDS011;4919;48.792;9.202;2022-11-24T10:51:58;37.13;;;21.57;;
9759;SDS011;4919;48.792;9.202;2022-11-24T10:54:09;36.90;;;21.07;;
9759;SDS011;4919;48.792;9.202;2022-11-24T10:56:42;34.07;;;21.07;;
9759;SDS011;4919;48.792;9.202;2022-11-24T11:04:55;38.57;;;22.27;;
9759;SDS011;4919;48.792;9.202;2022-11-24T11:07:23;37.93;;;22.73;;
9759;SDS011;4919;48.792;9.202;2022-11-24T11:12:48;33.77;;;20.13;;
9759;SDS011;4919;48.792;9.202;2022-11-24T11:15:22;37.27;;;21.20;;
9759;SDS011;4919;48.792;9.202;2022-11-24T11:17:54;34.63;;;21.40;;
9759;SDS011;4919;48.792;9.202;2022-11-24T11:20:30;36.60;;;21.13;;
9759;SDS011;4919;48.792;9.202;2022-11-24T11:22:59;34.67;;;20.87;;
9759;SDS011;4919;48.792;9.202;2022-11-24T11:25:33;34.50;;;20.70;;
9759;SDS011;4919;48.792;9.202;2022-11-24T11:30:58;31.63;;;20.30;;
9759;SDS011;4919;48.792;9.202;2022-11-24T11:33:53;32.70;;;20.83;;
9759;SDS011;4919;48.792;9.202;2022-11-24T11:36:30;33.37;;;20.50;;
9759;SDS011;4919;48.792;9.202;2022-11-24T11:38:58;31.03;;;20.77;;
9759;SDS011;4919;48.792;9.202;2022-11-24T11:41:35;33.10;;;20.23;;
9759;SDS011;4919;48.792;9.202;2022-11-24T11:44:09;32.30;;;20.40;;
9759;SDS011;4919;48.792;9.202;2022-11-24T11:46:52;31.63;;;20.23;;
9759;SDS011;4919;48.792;9.202;2022-11-24T11:49:23;30.43;;;20.20;;
9759;SDS011;4919;48.792;9.202;2022-11-24T12:00:37;32.90;;;20.23;;
9759;SDS011;4919;48.792;9.202;2022-11-24T12:08:38;30.43;;;19.73;;
9759;SDS011;4919;48.792;9.202;2022-11-24T12:11:59;31.30;;;19.23;;
9759;SDS011;4919;48.792;9.202;2022-11-24T12:17:45;28.70;;;19.13;;
9759;SDS011;4919;48.792;9.202;2022-11-24T12:31:51;31.57;;;19.30;;
9759;SDS011;4919;48.792;9.202;2022-11-24T12:40:31;32.20;;;19.67;;
9759;SDS011;4919;48.792;9.202;2022-11-24T12:43:19;31.37;;;19.70;;
9759;SDS011;4919;48.792;9.202;2022-11-24T12:51:29;30.47;;;20.00;;
9759;SDS011;4919;48.792;9.202;2022-11-24T12:54:01;30.70;;;19.73;;
9759;SDS011;4919;48.792;9.202;2022-11-24T12:56:39;29.83;;;19.40;;
9759;SDS011;4919;48.792;9.202;2022-11-24T13:01:49;34.43;;;21.23;;
9759;SDS011;4919;48.792;9.202;2022-11-24T13:04:43;33.37;;;19.77;;
9759;SDS011;4919;48.792;9.202;2022-11-24T13:13:12;28.10;;;18.97;;
9759;SDS011;4919;48.792;9.202;2022-11-24T13:26:46;30.73;;;20.23;;
9759;SDS011;4919;48.792;9.202;2022-11-24T13:40:02;26.83;;;17.80;;
9759;SDS011;4919;48.792;9.202;2022-11-24T13:43:33;28.37;;;18.07;;
9759;SDS011;4919;48.792;9.202;2022-11-24T13:58:49;28.33;;;18.77;;
9759;SDS011;4919;48.792;9.202;2022-11-24T14:01:18;31.00;;;19.50;;
9759;SDS011;4919;48.792;9.202;2022-11-24T14:07:02;30.43;;;18.33;;
9759;SDS011;4919;48.792;9.202;2022-11-24T14:09:41;29.43;;;19.20;;
9759;SDS011;4919;48.792;9.202;2022-11-24T14:14:49;33.00;;;19.30;;
9759;SDS011;4919;48.792;9.202;2022-11-24T14:17:24;29.27;;;19.70;;
9759;SDS011;4919;48.792;9.202;2022-11-24T14:19:53;31.63;;;19.63;;
9759;SDS011;4919;48.792;9.202;2022-11-24T14:22:29;30.03;;;19.20;;
9759;SDS011;4919;48.792;9.202;2022-11-24T14:25:00;29.90;;;19.47;;
9759;SDS011;4919;48.792;9.202;2022-11-24T14:27:33;30.83;;;19.50;;
9759;SDS011;4919;48.792;9.202;2022-11-24T14:30:23;30.47;;;19.17;;
9759;SDS011;4919;48.792;9.202;2022-11-24T14:32:56;29.90;;;18.43;;
9759;SDS011;4919;48.792;9.202;2022-11-24T14:35:28;32.03;;;19.20;;
9759;SDS011;4919;48.792;9.202;2022-11-24T14:38:01;29.33;;;19.80;;
9759;SDS011;4919;48.792;9.202;2022-11-24T14:43:28;27.30;;;18.40;;
9759;SDS011;4919;48.792;9.202;2022-11-24T14:46:00;26.43;;;18.20;;
9759;SDS011;4919;48.792;9.202;2022-11-24T14:48:29;29.90;;;18.90;;
9759;SDS011;4919;48.792;9.202;2022-11-24T14:51:17;34.53;;;20.13;;
9759;SDS011;4919;48.792;9.202;2022-11-24T14:53:51;32.37;;;19.60;;
9759;SDS011;4919;48.792;9.202;2022-11-24T14:56:28;32.50;;;20.20;;
9759;SDS011;4919;48.792;9.202;2022-11-24T14:58:57;32.67;;;21.20;;
9759;SDS011;4919;48.792;9.202;2022-11-24T15:04:12;32.90;;;21.47;;
9759;SDS011;4919;48.792;9.202;2022-11-24T15:07:12;32.30;;;20.83;;
9759;SDS011;4919;48.792;9.202;2022-11-24T15:14:55;32.23;;;21.00;;
9759;SDS011;4919;48.792;9.202;2022-11-24T15:17:26;31.93;;;20.77;;
9759;SDS011;4919;48.792;9.202;2022-11-24T15:20:07;35.23;;;21.30;;
9759;SDS011;4919;48.792;9.202;2022-11-24T15:22:44;33.03;;;21.17;;
9759;SDS011;4919;48.792;9.202;2022-11-24T15:27:51;32.73;;;21.17;;
9759;SDS011;4919;48.792;9.202;2022-11-24T15:30:19;36.40;;;22.40;;
9759;SDS011;4919;48.792;9.202;2022-11-24T15:32:55;37.13;;;22.60;;
9759;SDS011;4919;48.792;9.202;2022-11-24T15:35:25;37.33;;;21.87;;
9759;SDS011;4919;48.792;9.202;2022-11-24T15:37:57;35.40;;;21.97;;
9759;SDS011;4919;48.792;9.202;2022-11-24T15:40:24;39.00;;;23.37;;
9759;SDS011;4919;48.792;9.202;2022-11-24T15:42:54;39.47;;;23.73;;
9759;SDS011;4919;48.792;9.202;2022-11-24T15:45:28;42.40;;;23.97;;
9759;SDS011;4919;48.792;9.202;2022-11-24T15:47:55;39.07;;;23.17;;
9759;SDS011;4919;48.792;9.202;2022-11-24T15:50:22;40.80;;;22.73;;
9759;SDS011;4919;48.792;9.202;2022-11-24T15:52:48;41.77;;;23.87;;
9759;SDS011;4919;48.792;9.202;2022-11-24T15:55:19;42.77;;;23.00;;
9759;SDS011;4919;48.792;9.202;2022-11-24T15:57:47;40.53;;;22.93;;
9759;SDS011;4919;48.792;9.202;2022-11-24T16:00:18;36.50;;;22.20;;
9759;SDS011;4919;48.792;9.202;2022-11-24T16:02:47;38.57;;;23.00;;
9759;SDS011;4919;48.792;9.202;2022-11-24T16:05:14;38.57;;;22.60;;
9759;SDS011;4919;48.792;9.202;2022-11-24T16:07:42;38.30;;;23.00;;
9759;SDS011;4919;48.792;9.202;2022-11-24T16:10:27;42.27;;;23.90;;
9759;SDS011;4919;48.792;9.202;2022-11-24T16:12:56;39.53;;;23.57;;
9759;SDS011;4919;48.792;9.202;2022-11-24T16:15:23;37.40;;;23.30;;
9759;SDS011;4919;48.792;9.202;2022-11-24T16:17:50;35.63;;;22.40;;
9759;SDS011;4919;48.792;9.202;2022-11-24T16:20:17;36.77;;;22.43;;
9759;SDS011;4919;48.792;9.202;2022-11-24T16:22:44;38.03;;;22.43;;
9759;SDS011;4919;48.792;9.202;2022-11-24T16:25:11;37.93;;;22.27;;
9759;SDS011;4919;48.792;9.202;2022-11-24T16:27:39;40.30;;;22.53;;
9759;SDS011;4919;48.792;9.202;2022-11-24T16:30:07;45.43;;;23.87;;
9759;SDS011;4919;48.792;9.202;2022-11-24T16:32:35;42.97;;;23.43;;
9759;SDS011;4919;48.792;9.202;2022-11-24T16:35:03;37.60;;;22.07;;
9759;SDS011;4919;48.792;9.202;2022-11-24T16:37:31;40.23;;;24.17;;
9759;SDS011;4919;48.792;9.202;2022-11-24T16:39:58;36.73;;;21.93;;
9759;SDS011;4919;48.792;9.202;2022-11-24T16:42:27;39.60;;;23.03;;
9759;SDS011;4919;48.792;9.202;2022-11-24T16:44:54;38.57;;;22.63;;
9759;SDS011;4919;48.792;9.202;2022-11-24T16:47:21;42.60;;;22.23;;
9759;SDS011;4919;48.792;9.202;2022-11-24T16:49:48;38.97;;;22.07;;
9759;SDS011;4919;48.792;9.202;2022-11-24T16:52:15;39.80;;;21.87;;
9759;SDS011;4919;48.792;9.202;2022-11-24T16:54:42;37.00;;;22.40;;
9759;SDS011;4919;48.792;9.202;2022-11-24T16:57:10;38.50;;;22.67;;
9759;SDS011;4919;48.792;9.202;2022-11-24T16:59:40;38.73;;;22.20;;
9759;SDS011;4919;48.792;9.202;2022-11-24T17:02:11;38.33;;;22.67;;
9759;SDS011;4919;48.792;9.202;2022-11-24T17:04:39;39.77;;;22.47;;
9759;SDS011;4919;48.792;9.202;2022-11-24T17:07:06;39.27;;;22.57;;
9759;SDS011;4919;48.792;9.202;2022-11-24T17:09:33;37.53;;;21.43;;
9759;SDS011;4919;48.792;9.202;2022-11-24T17:12:05;38.83;;;22.27;;
9759;SDS011;4919;48.792;9.202;2022-11-24T17:14:33;44.10;;;23.93;;
9759;SDS011;4919;48.792;9.202;2022-11-24T17:17:00;44.33;;;23.80;;
9759;SDS011;4919;48.792;9.202;2022-11-24T17:19:30;40.77;;;22.90;;
9759;SDS011;4919;48.792;9.202;2022-11-24T17:21:57;41.10;;;21.47;;
9759;SDS011;4919;48.792;9.202;2022-11-24T17:24:24;39.43;;;22.10;;
9759;SDS011;4919;48.792;9.202;2022-11-24T17:26:51;40.83;;;22.80;;
9759;SDS011;4919;48.792;9.202;2022-11-24T17:29:18;40.23;;;21.70;;
9759;SDS011;4919;48.792;9.202;2022-11-24T17:31:45;39.07;;;22.07;;
9759;SDS011;4919;48.792;9.202;2022-11-24T17:34:12;39.67;;;22.33;;
9759;SDS011;4919;48.792;9.202;2022-11-24T17:36:39;41.57;;;22.47;;
9759;SDS011;4919;48.792;9.202;2022-11-24T17:39:09;40.47;;;22.07;;
9759;SDS011;4919;48.792;9.202;2022-11-24T17:41:36;38.03;;;21.87;;